KSHD

Shenandoah Valley Regional Airport

Staunton/Waynesboro/Harrisonburg, Virginia, USA
METAR KSHD 191655Z AUTO 00000KT 10SM BKN025 OVC090 25/19 A3001 RMK AO2 T02500194
Observed Flight Rules
Aug-19 @ 16:55 UTC (16 minutes ago) Marginal Visual Flight Rules
Visibility Clouds
10 miles
  • Broken at 2,500' AGL
  • Overcast at 9,000' AGL
Temperatures Readings
Current 25°C / 77°F
Dewpoint 19°C / 66°F
Humidity 69%
Altimeter 30.01" Hg
Pressure 1016 hPa
Elevation 366
METAR KSHD 191655Z AUTO 00000KT 10SM BKN025 OVC090 25/19 A3001 RMK AO2 T02500194
Observed Flight Rules
Aug-19 @ 16:55 UTC
(16 minutes ago)
MVFR
Clouds
  • Broken at 2,500' AGL
  • Overcast at 9,000' AGL
Temperature Dewpoint
25°C / 77°F 19°C / 66°F
Humidity Altimeter Pressure
69% 30.01" Hg 1016 hPa